Time;durP1;ratioP1;P1;durP2;ratioP2;P2;SDS_P1;SDS_P2;PMS_P1;PMS_P2;Temp;Humidity;BMP_temperature;BMP_pressure;BME280_temperature;BME280_humidity;BME280_pressure;Samples;Min_cycle;Max_cycle;Signal;HPM_P1;HPM_P2
2024/04/23 00:01:26;;;;;;;4.13;2.72;;;4.30;99.90;;;;;;5457630;26;20344;-74
2024/04/23 00:03:52;;;;;;;3.78;1.75;;;4.40;99.90;;;;;;5451830;26;20021;-74
2024/04/23 00:06:17;;;;;;;4.32;2.60;;;4.40;99.90;;;;;;5457524;26;20006;-74
2024/04/23 00:08:43;;;;;;;4.63;2.92;;;4.40;99.90;;;;;;5456307;26;19994;-74
2024/04/23 00:11:09;;;;;;;4.95;3.03;;;4.30;99.90;;;;;;5457310;26;20002;-74
2024/04/23 00:13:34;;;;;;;3.78;2.55;;;4.40;99.90;;;;;;5458251;26;19994;-74
2024/04/23 00:16:00;;;;;;;6.40;2.42;;;4.30;99.90;;;;;;5458673;26;20010;-74
2024/04/23 00:18:25;;;;;;;3.70;2.10;;;4.30;99.90;;;;;;5455953;26;19994;-74
2024/04/23 00:20:55;;;;;;;4.38;2.67;;;4.20;99.90;;;;;;5457739;26;20017;-74
2024/04/23 00:23:21;;;;;;;5.53;2.85;;;4.20;99.90;;;;;;5456907;26;20120;-74
2024/04/23 00:25:47;;;;;;;4.15;2.63;;;4.20;99.90;;;;;;5455511;26;20476;-73
2024/04/23 00:28:12;;;;;;;4.40;2.42;;;4.30;99.90;;;;;;5456970;26;20006;-76
2024/04/23 00:30:38;;;;;;;3.55;1.90;;;4.30;99.90;;;;;;5458428;26;20010;-74
2024/04/23 00:33:06;;;;;;;4.43;2.30;;;4.30;99.90;;;;;;5463088;26;20041;-74
2024/04/23 00:35:32;;;;;;;4.18;2.35;;;4.30;99.90;;;;;;5462458;26;20488;-74
2024/04/23 00:37:58;;;;;;;3.00;1.83;;;4.30;99.90;;;;;;5460678;26;20137;-74
2024/04/23 00:40:23;;;;;;;3.65;1.80;;;4.30;99.90;;;;;;5462442;26;20434;-74
2024/04/23 00:42:49;;;;;;;3.42;1.98;;;4.20;99.90;;;;;;5459161;26;20725;-74
2024/04/23 00:45:18;;;;;;;3.40;1.80;;;4.20;99.90;;;;;;5462507;26;20016;-74
2024/04/23 00:47:45;;;;;;;3.42;1.88;;;4.30;99.90;;;;;;5464060;26;20037;-74
2024/04/23 00:50:10;;;;;;;2.95;1.77;;;4.30;99.90;;;;;;5459072;26;20002;-74
2024/04/23 00:52:37;;;;;;;2.75;1.40;;;4.20;99.90;;;;;;5458568;26;20339;-74
2024/04/23 00:55:03;;;;;;;2.72;1.60;;;4.20;99.90;;;;;;5464217;26;19990;-74
2024/04/23 00:57:29;;;;;;;2.63;1.30;;;4.20;99.90;;;;;;5462086;26;20010;-75
2024/04/23 00:59:54;;;;;;;3.35;1.80;;;4.20;99.90;;;;;;5460847;26;20009;-74
2024/04/23 01:02:20;;;;;;;2.78;1.50;;;4.20;99.90;;;;;;5459508;26;20006;-74
2024/04/23 01:04:46;;;;;;;5.63;1.90;;;4.20;99.90;;;;;;5459521;26;20029;-74
2024/04/23 01:07:12;;;;;;;3.53;1.85;;;4.20;99.90;;;;;;5460646;26;20024;-74
2024/04/23 01:09:37;;;;;;;3.78;2.00;;;4.20;99.90;;;;;;5462805;26;20797;-74
2024/04/23 01:12:03;;;;;;;2.75;1.42;;;4.20;99.90;;;;;;5462050;26;20006;-73
2024/04/23 01:14:29;;;;;;;3.03;1.65;;;4.20;99.90;;;;;;5465149;26;20002;-74
2024/04/23 01:16:56;;;;;;;3.65;1.85;;;4.20;99.90;;;;;;5457945;26;20364;-74
2024/04/23 01:19:26;;;;;;;3.65;1.70;;;4.20;99.90;;;;;;5459471;26;19998;-74
2024/04/23 01:22:11;;;;;;;6.45;1.95;;;4.20;99.90;;;;;;5463142;26;20013;-74
2024/04/23 01:24:59;;;;;;;3.47;1.70;;;4.10;99.90;;;;;;5461510;26;20141;-73
2024/04/23 01:27:26;;;;;;;3.92;1.92;;;4.20;99.90;;;;;;5461913;26;20772;-73
2024/04/23 01:29:52;;;;;;;5.45;1.92;;;4.20;99.90;;;;;;5459218;26;20441;-73
2024/04/23 01:32:20;;;;;;;3.65;2.03;;;4.20;99.90;;;;;;5458077;26;20014;-74
2024/04/23 01:34:45;;;;;;;3.08;2.05;;;4.30;99.90;;;;;;5462731;26;20031;-74
2024/04/23 01:37:11;;;;;;;3.30;1.88;;;4.20;99.90;;;;;;5461444;26;20018;-74
2024/04/23 01:39:38;;;;;;;2.72;1.55;;;4.30;99.90;;;;;;5461608;26;20009;-74
2024/04/23 01:42:05;;;;;;;3.20;1.70;;;4.30;99.90;;;;;;5460852;26;20012;-74
2024/04/23 01:44:32;;;;;;;2.88;1.70;;;4.30;99.90;;;;;;5458924;26;20427;-73
2024/04/23 01:46:58;;;;;;;4.05;1.98;;;4.20;99.90;;;;;;5458802;26;20011;-73
2024/04/23 01:49:24;;;;;;;4.10;2.30;;;4.30;99.90;;;;;;5460385;26;20454;-75
2024/04/23 01:51:49;;;;;;;6.13;1.85;;;4.30;99.90;;;;;;5461275;26;20021;-74
2024/04/23 01:54:15;;;;;;;3.95;2.38;;;4.40;99.90;;;;;;5460073;26;20005;-73
2024/04/23 01:56:41;;;;;;;2.55;1.55;;;4.40;99.90;;;;;;5460354;26;20046;-74
2024/04/23 01:59:06;;;;;;;3.80;2.03;;;4.40;99.90;;;;;;5459662;26;20021;-74
2024/04/23 02:01:37;;;;;;;3.90;2.08;;;4.30;99.90;;;;;;5459540;26;20705;-74
2024/04/23 02:04:05;;;;;;;3.38;1.88;;;4.30;99.90;;;;;;5456349;26;20082;-73
2024/04/23 02:06:31;;;;;;;3.25;1.80;;;4.30;99.90;;;;;;5460537;26;19998;-73
2024/04/23 02:08:58;;;;;;;3.17;1.80;;;4.30;99.90;;;;;;5454683;26;20108;-74
2024/04/23 02:11:24;;;;;;;3.28;1.52;;;4.30;99.90;;;;;;5459613;26;20038;-73
2024/04/23 02:13:50;;;;;;;3.10;1.70;;;4.30;99.90;;;;;;5457039;26;20017;-74
2024/04/23 02:16:16;;;;;;;4.15;1.85;;;4.30;99.90;;;;;;5460844;26;20513;-73
2024/04/23 02:18:42;;;;;;;2.63;1.52;;;4.30;99.90;;;;;;5462197;26;20014;-74
2024/04/23 02:21:07;;;;;;;3.22;1.65;;;4.30;99.90;;;;;;5458409;26;20466;-74
2024/04/23 02:23:33;;;;;;;3.90;2.00;;;4.30;99.90;;;;;;5459926;26;20034;-74
2024/04/23 02:25:58;;;;;;;2.72;1.67;;;4.30;99.90;;;;;;5460602;26;20090;-74
2024/04/23 02:28:24;;;;;;;2.58;1.52;;;4.30;99.90;;;;;;5462433;26;20002;-74
2024/04/23 02:30:50;;;;;;;2.65;1.30;;;4.30;99.90;;;;;;5457853;26;20074;-74
2024/04/23 02:33:15;;;;;;;3.50;2.00;;;4.50;99.90;;;;;;5459539;26;19994;-74
2024/04/23 02:35:41;;;;;;;2.63;1.65;;;4.50;99.90;;;;;;5461143;26;20081;-74
2024/04/23 02:38:06;;;;;;;3.08;1.73;;;4.40;99.90;;;;;;5460302;26;20005;-73
2024/04/23 02:40:32;;;;;;;3.28;1.70;;;4.40;99.90;;;;;;5458233;26;20321;-73
2024/04/23 02:42:58;;;;;;;2.95;1.75;;;4.40;99.90;;;;;;5458314;26;20078;-75
2024/04/23 02:45:23;;;;;;;3.85;1.60;;;4.40;99.90;;;;;;5462071;26;20017;-73
2024/04/23 02:47:49;;;;;;;2.95;1.60;;;4.40;99.90;;;;;;5459371;26;20082;-74
2024/04/23 02:50:14;;;;;;;4.38;1.80;;;4.30;99.90;;;;;;5456820;26;20618;-73
2024/04/23 02:52:40;;;;;;;2.42;1.33;;;4.40;99.90;;;;;;5460103;26;20009;-74
2024/04/23 02:55:06;;;;;;;2.80;1.58;;;4.40;99.90;;;;;;5459733;26;20022;-74
2024/04/23 02:57:31;;;;;;;3.17;1.67;;;4.40;99.90;;;;;;5457421;26;19998;-73
2024/04/23 02:59:57;;;;;;;3.13;1.70;;;4.40;99.90;;;;;;5458796;26;20009;-74
2024/04/23 03:02:22;;;;;;;3.15;1.50;;;4.40;99.90;;;;;;5457062;26;20063;-74
2024/04/23 03:04:48;;;;;;;3.33;1.52;;;4.30;99.90;;;;;;5451807;26;19990;-74
2024/04/23 03:07:13;;;;;;;2.75;1.40;;;4.40;99.90;;;;;;5449920;26;20006;-75
2024/04/23 03:09:39;;;;;;;2.95;1.42;;;4.40;99.90;;;;;;5449912;26;20002;-75
2024/04/23 03:12:05;;;;;;;2.80;1.40;;;4.50;99.90;;;;;;5451615;26;20017;-75
2024/04/23 03:14:31;;;;;;;3.20;1.30;;;4.50;99.90;;;;;;5453491;26;20006;-75
2024/04/23 03:16:57;;;;;;;4.63;1.40;;;4.50;99.90;;;;;;5452499;26;20020;-74
2024/04/23 03:19:22;;;;;;;2.35;1.40;;;4.60;99.90;;;;;;5442356;26;20440;-74
2024/04/23 03:21:53;;;;;;;4.90;1.38;;;4.50;99.90;;;;;;5450078;26;20552;-76
2024/04/23 03:24:19;;;;;;;2.25;1.20;;;4.50;99.90;;;;;;5446846;26;20029;-75
2024/04/23 03:26:44;;;;;;;2.17;1.10;;;4.50;99.90;;;;;;5450973;26;20002;-76
2024/04/23 03:29:10;;;;;;;2.50;1.33;;;4.50;99.90;;;;;;5448916;26;20030;-76
2024/04/23 03:31:36;;;;;;;2.17;1.20;;;4.50;99.90;;;;;;5448660;26;20006;-74
2024/04/23 03:34:02;;;;;;;3.38;1.48;;;4.50;99.90;;;;;;5450503;26;20002;-75
2024/04/23 03:36:27;;;;;;;2.13;1.10;;;4.50;99.90;;;;;;5445852;26;20014;-74
2024/04/23 03:38:53;;;;;;;4.05;1.50;;;4.50;99.90;;;;;;5448518;26;20021;-74
2024/04/23 03:41:18;;;;;;;3.42;1.73;;;4.50;99.90;;;;;;5451629;26;20002;-75
2024/04/23 03:43:44;;;;;;;2.60;1.58;;;4.40;99.90;;;;;;5450086;26;20042;-74
2024/04/23 03:46:09;;;;;;;3.58;1.92;;;4.40;99.90;;;;;;5452476;26;20006;-76
2024/04/23 03:48:35;;;;;;;3.42;1.70;;;4.40;99.90;;;;;;5453971;26;20024;-75
2024/04/23 03:51:01;;;;;;;2.92;1.48;;;4.50;99.90;;;;;;5452397;26;19998;-74
2024/04/23 03:53:26;;;;;;;3.72;1.92;;;4.50;99.90;;;;;;5450710;26;20039;-74
2024/04/23 03:55:52;;;;;;;3.80;1.90;;;4.50;99.90;;;;;;5454560;26;20017;-74
2024/04/23 03:58:17;;;;;;;3.00;1.60;;;4.50;99.90;;;;;;5448862;26;20078;-75
2024/04/23 04:00:43;;;;;;;2.47;1.38;;;4.60;99.90;;;;;;5447388;26;20649;-75
2024/04/23 04:06:06;;;;;;;2.47;0.88;;;4.60;99.90;;;;;;5456200;26;20021;-75
2024/04/23 04:08:33;;;;;;;1.67;0.93;;;4.80;99.90;;;;;;5455187;26;20006;-75
2024/04/23 04:10:59;;;;;;;2.00;1.02;;;4.90;99.90;;;;;;5457535;26;21420;-75
2024/04/23 04:13:25;;;;;;;3.00;1.05;;;4.90;99.90;;;;;;5457055;26;20054;-76
2024/04/23 04:15:51;;;;;;;1.90;0.90;;;5.10;99.90;;;;;;5456145;26;20787;-75
2024/04/23 04:18:17;;;;;;;1.08;0.57;;;5.10;99.90;;;;;;5452331;26;20016;-75
2024/04/23 04:20:43;;;;;;;1.60;0.80;;;5.10;99.90;;;;;;5456394;26;20010;-76
2024/04/23 04:23:08;;;;;;;1.98;0.95;;;5.20;99.90;;;;;;5455984;26;20006;-75
2024/04/23 04:25:34;;;;;;;2.75;0.95;;;5.20;99.90;;;;;;5452475;26;20215;-75
2024/04/23 04:28:00;;;;;;;1.95;0.88;;;5.20;99.90;;;;;;5456485;26;20049;-76
2024/04/23 04:30:25;;;;;;;2.67;1.13;;;5.10;99.90;;;;;;5453586;26;20453;-75
2024/04/23 04:32:51;;;;;;;2.15;1.17;;;5.00;99.90;;;;;;5455399;26;20871;-75
2024/04/23 04:35:17;;;;;;;3.10;1.10;;;5.10;99.90;;;;;;5455331;26;20022;-75
2024/04/23 04:37:42;;;;;;;2.38;0.82;;;5.00;99.90;;;;;;5455531;26;20587;-75
2024/04/23 04:40:08;;;;;;;1.08;0.60;;;4.90;99.90;;;;;;5456560;26;20010;-75
2024/04/23 04:42:34;;;;;;;4.53;2.00;;;4.90;99.90;;;;;;5458174;26;21238;-76
2024/04/23 04:45:00;;;;;;;3.00;1.90;;;4.90;99.90;;;;;;5457062;26;20018;-75
2024/04/23 04:47:25;;;;;;;4.47;2.38;;;4.90;99.90;;;;;;5458174;26;20009;-76
2024/04/23 04:49:51;;;;;;;3.42;2.00;;;4.90;99.90;;;;;;5453977;26;20021;-75
2024/04/23 04:52:17;;;;;;;4.85;2.58;;;5.00;99.90;;;;;;5456728;26;20035;-76
2024/04/23 04:54:42;;;;;;;4.22;2.20;;;4.90;99.90;;;;;;5456512;26;20021;-75
2024/04/23 04:57:08;;;;;;;3.15;1.67;;;5.00;99.90;;;;;;5455000;26;20024;-76
2024/04/23 04:59:34;;;;;;;3.20;1.60;;;5.00;99.90;;;;;;5451380;26;20121;-75
2024/04/23 05:01:59;;;;;;;2.88;1.40;;;5.00;99.90;;;;;;5456078;26;20013;-78
2024/04/23 05:04:25;;;;;;;3.92;1.90;;;4.90;99.90;;;;;;5454710;26;20014;-76
2024/04/23 05:06:50;;;;;;;4.13;2.22;;;4.90;99.90;;;;;;5457190;26;20077;-76
2024/04/23 05:09:16;;;;;;;4.50;2.42;;;4.90;99.90;;;;;;5451888;26;20061;-76
2024/04/23 05:11:42;;;;;;;5.43;2.80;;;4.90;99.90;;;;;;5457530;26;19998;-76
2024/04/23 05:14:08;;;;;;;4.22;2.05;;;5.00;99.90;;;;;;5452112;26;20086;-77
2024/04/23 05:16:34;;;;;;;3.97;1.92;;;4.90;99.90;;;;;;5451257;26;20026;-76
2024/04/23 05:19:01;;;;;;;3.90;1.90;;;5.00;99.90;;;;;;5457007;26;20010;-76
2024/04/23 05:21:27;;;;;;;4.63;2.42;;;5.10;99.90;;;;;;5448522;26;20640;-74
2024/04/23 05:23:53;;;;;;;5.07;2.30;;;5.10;99.90;;;;;;5446935;26;20010;-75
2024/04/23 05:26:18;;;;;;;3.13;1.52;;;5.20;99.90;;;;;;5451530;26;20099;-74
2024/04/23 05:28:44;;;;;;;3.03;1.50;;;5.20;99.90;;;;;;5449794;26;20014;-74
2024/04/23 05:33:54;;;;;;;4.72;2.17;;;5.40;99.90;;;;;;5451795;26;20013;-75
2024/04/23 05:36:22;;;;;;;5.22;3.15;;;5.30;99.90;;;;;;5449470;26;20722;-75
2024/04/23 05:38:48;;;;;;;4.80;2.80;;;5.20;99.90;;;;;;5449802;26;20010;-75
2024/04/23 05:41:14;;;;;;;5.50;2.88;;;5.20;99.90;;;;;;5451428;26;21613;-75
2024/04/23 05:43:40;;;;;;;5.93;3.78;;;5.20;99.90;;;;;;5450507;26;20325;-76
2024/04/23 05:46:05;;;;;;;7.88;4.60;;;5.10;99.90;;;;;;5449681;26;20014;-74
2024/04/23 05:49:09;;;;;;;8.18;4.15;;;5.00;99.90;;;;;;5453002;26;20013;-75
2024/04/23 05:52:12;;;;;;;7.25;4.40;;;5.00;99.90;;;;;;5449999;26;20017;-75
2024/04/23 05:55:15;;;;;;;7.15;4.45;;;5.00;99.90;;;;;;5449772;26;20002;-75
2024/04/23 05:57:41;;;;;;;8.52;5.18;;;5.00;99.90;;;;;;5456117;26;20023;-75
2024/04/23 06:00:07;;;;;;;9.30;4.60;;;5.00;99.90;;;;;;5456741;26;20769;-80
2024/04/23 06:02:32;;;;;;;6.60;4.30;;;5.00;99.90;;;;;;5455165;26;20102;-74
2024/04/23 06:04:58;;;;;;;7.05;3.72;;;5.00;99.90;;;;;;5457337;26;20014;-75
2024/04/23 06:07:23;;;;;;;5.93;3.00;;;5.00;99.90;;;;;;5454506;26;20002;-74
2024/04/23 06:09:49;;;;;;;10.30;2.80;;;5.10;99.90;;;;;;5455652;26;20017;-76
2024/04/23 06:12:15;;;;;;;4.68;2.63;;;5.10;99.90;;;;;;5451883;26;20005;-76
2024/04/23 06:14:43;;;;;;;4.18;2.40;;;5.20;99.90;;;;;;5451608;26;20045;-78
2024/04/23 06:17:25;;;;;;;3.60;2.38;;;5.20;99.90;;;;;;5453124;26;20337;-75
2024/04/23 06:19:51;;;;;;;4.18;1.90;;;5.30;99.90;;;;;;5454077;26;20082;-79
2024/04/23 06:22:21;;;;;;;2.63;1.33;;;5.40;99.90;;;;;;5454634;26;20484;-77
2024/04/23 06:24:50;;;;;;;2.67;1.45;;;5.50;99.90;;;;;;5449488;26;20010;-76
2024/04/23 06:27:17;;;;;;;3.05;1.40;;;5.60;99.90;;;;;;5452955;26;20240;-76
2024/04/23 06:29:45;;;;;;;2.45;1.15;;;5.70;99.90;;;;;;5455769;26;20539;-76
2024/04/23 06:32:15;;;;;;;1.30;0.90;;;5.80;99.90;;;;;;5456434;26;20002;-75
2024/04/23 06:34:42;;;;;;;2.60;1.30;;;5.80;99.90;;;;;;5450595;26;20510;-75
2024/04/23 06:37:08;;;;;;;1.13;0.63;;;5.80;99.90;;;;;;5452296;26;20009;-75
2024/04/23 06:39:34;;;;;;;1.95;0.98;;;5.90;99.90;;;;;;5449148;26;19998;-75
2024/04/23 06:41:59;;;;;;;1.92;0.98;;;5.90;99.90;;;;;;5444581;26;20018;-76
2024/04/23 06:44:26;;;;;;;2.25;0.98;;;6.00;99.90;;;;;;5446052;26;20064;-75
2024/04/23 06:46:51;;;;;;;2.60;1.15;;;6.00;99.90;;;;;;5453508;26;20013;-77
2024/04/23 06:49:17;;;;;;;1.88;1.05;;;6.00;99.90;;;;;;5453037;26;20003;-77
2024/04/23 06:51:43;;;;;;;2.47;1.15;;;5.90;99.90;;;;;;5452969;26;20478;-79
2024/04/23 06:54:08;;;;;;;2.28;1.10;;;5.90;99.90;;;;;;5451207;26;20504;-75
2024/04/23 06:56:34;;;;;;;2.35;1.13;;;5.70;99.90;;;;;;5452776;26;20027;-76
2024/04/23 06:58:59;;;;;;;2.30;1.20;;;5.70;99.90;;;;;;5454624;26;19998;-78
2024/04/23 07:01:25;;;;;;;2.30;1.20;;;5.80;99.90;;;;;;5453622;26;20009;-76
2024/04/23 07:03:51;;;;;;;2.13;1.17;;;5.70;99.90;;;;;;5449942;26;20014;-76
2024/04/23 07:06:16;;;;;;;4.53;2.15;;;5.70;99.90;;;;;;5453872;26;20024;-75
2024/04/23 07:08:42;;;;;;;6.93;4.95;;;5.60;99.90;;;;;;5453209;26;20038;-75
2024/04/23 07:11:08;;;;;;;6.10;4.03;;;5.20;99.90;;;;;;5453468;26;20002;-75
2024/04/23 07:13:34;;;;;;;4.47;3.35;;;5.20;99.90;;;;;;5453166;26;20038;-76
2024/04/23 07:15:59;;;;;;;5.82;3.70;;;5.30;99.90;;;;;;5448478;26;20449;-76
2024/04/23 07:18:25;;;;;;;7.10;2.72;;;5.30;99.90;;;;;;5454864;26;20098;-78
2024/04/23 07:20:52;;;;;;;3.17;1.65;;;5.20;99.90;;;;;;5455916;26;20014;-75
2024/04/23 07:23:17;;;;;;;3.45;1.20;;;5.30;99.90;;;;;;5455404;26;20711;-75
2024/04/23 07:25:50;;;;;;;3.35;1.30;;;5.30;99.90;;;;;;5452475;26;20156;-75
2024/04/23 07:28:20;;;;;;;1.85;0.80;;;5.30;99.90;;;;;;5454742;26;20707;-77
2024/04/23 07:30:45;;;;;;;2.25;0.90;;;5.40;99.90;;;;;;5449816;26;20022;-78
2024/04/23 07:33:11;;;;;;;1.40;0.77;;;5.40;99.90;;;;;;5451391;26;20006;-78
2024/04/23 07:35:37;;;;;;;1.55;0.80;;;5.50;99.90;;;;;;5452767;26;20440;-76
2024/04/23 07:38:08;;;;;;;2.72;0.93;;;5.40;99.90;;;;;;5453106;26;20104;-77
2024/04/23 07:40:34;;;;;;;3.63;1.67;;;5.60;99.90;;;;;;5450738;26;21560;-79
2024/04/23 07:43:00;;;;;;;2.40;1.10;;;6.10;99.90;;;;;;5454128;26;20024;-77
2024/04/23 07:45:25;;;;;;;8.30;2.15;;;5.80;99.90;;;;;;5450319;26;20057;-77
2024/04/23 07:47:51;;;;;;;1.92;0.77;;;6.70;99.90;;;;;;5447489;26;20014;-75
2024/04/23 07:50:17;;;;;;;1.35;0.77;;;6.10;99.90;;;;;;5454841;26;20108;-78
2024/04/23 07:52:42;;;;;;;2.35;1.00;;;5.80;99.90;;;;;;5453211;26;20099;-78
2024/04/23 07:55:08;;;;;;;1.77;0.80;;;5.90;99.90;;;;;;5451392;26;20026;-78
2024/04/23 07:57:33;;;;;;;2.35;1.02;;;5.90;99.90;;;;;;5454284;26;20040;-77
2024/04/23 07:59:59;;;;;;;1.63;0.73;;;5.70;99.90;;;;;;5454067;26;21415;-77
2024/04/23 08:02:25;;;;;;;2.53;1.00;;;6.00;99.90;;;;;;5451612;26;23516;-76
2024/04/23 08:04:51;;;;;;;1.73;0.70;;;6.00;99.90;;;;;;5449914;26;20035;-77
2024/04/23 08:07:17;;;;;;;2.20;0.93;;;6.20;99.90;;;;;;5453835;26;20011;-77
2024/04/23 08:09:43;;;;;;;1.85;0.95;;;6.20;99.90;;;;;;5452201;26;20034;-75
2024/04/23 08:12:08;;;;;;;1.90;0.80;;;6.40;99.90;;;;;;5455179;26;20010;-77
2024/04/23 08:14:34;;;;;;;2.38;0.90;;;6.50;99.90;;;;;;5448777;26;20003;-77
2024/04/23 08:16:59;;;;;;;1.75;0.70;;;6.50;99.90;;;;;;5451782;26;20010;-75
2024/04/23 08:19:25;;;;;;;1.70;0.65;;;6.70;99.90;;;;;;5452427;26;20017;-78
2024/04/23 08:21:51;;;;;;;0.93;0.57;;;6.60;99.90;;;;;;5453458;26;20010;-78
2024/04/23 08:24:16;;;;;;;0.90;0.50;;;6.70;99.90;;;;;;5452420;26;20013;-79
2024/04/23 08:26:42;;;;;;;3.58;1.67;;;6.80;99.90;;;;;;5455548;26;20737;-78
2024/04/23 08:29:07;;;;;;;4.07;1.20;;;7.50;99.90;;;;;;5453292;26;20546;-78
2024/04/23 08:31:33;;;;;;;1.65;0.80;;;7.90;99.90;;;;;;5454804;26;20076;-78
2024/04/23 08:33:59;;;;;;;1.77;0.68;;;7.40;99.90;;;;;;5448458;26;20006;-77
2024/04/23 08:36:25;;;;;;;1.95;0.80;;;7.20;99.90;;;;;;5453216;26;20116;-78
2024/04/23 08:38:51;;;;;;;2.17;0.98;;;7.10;99.90;;;;;;5455248;26;21736;-78
2024/04/23 08:41:18;;;;;;;1.52;0.80;;;7.00;99.90;;;;;;5452533;26;20539;-77
2024/04/23 08:43:57;;;;;;;2.28;1.20;;;6.90;99.90;;;;;;5449205;26;20452;-78
2024/04/23 08:46:24;;;;;;;1.70;0.98;;;6.50;99.90;;;;;;5451359;26;20002;-78
2024/04/23 08:48:50;;;;;;;3.03;1.17;;;6.50;99.90;;;;;;5453107;26;20417;-78
2024/04/23 08:51:19;;;;;;;2.70;1.48;;;6.60;99.90;;;;;;5454190;26;20013;-78
2024/04/23 08:53:48;;;;;;;2.50;0.90;;;6.80;99.90;;;;;;5449301;26;20718;-78
2024/04/23 08:56:22;;;;;;;2.45;1.10;;;6.90;99.90;;;;;;5450202;26;20002;-77
2024/04/23 08:58:51;;;;;;;1.58;0.90;;;6.80;99.90;;;;;;5458333;26;20819;-78
2024/04/23 09:01:52;;;;;;;2.55;1.65;;;6.90;99.90;;;;;;5455393;26;20020;-78
2024/04/23 09:04:18;;;;;;;2.67;1.27;;;6.90;99.90;;;;;;5377951;26;20025;-77
2024/04/23 09:06:45;;;;;;;4.30;2.55;;;6.80;99.90;;;;;;5452818;26;20006;-78
2024/04/23 09:09:15;;;;;;;4.95;2.75;;;6.70;99.90;;;;;;5456586;26;20572;-80
2024/04/23 09:11:42;;;;;;;6.40;2.80;;;6.50;99.90;;;;;;5458942;26;20038;-76
2024/04/23 09:14:08;;;;;;;4.68;2.92;;;6.50;99.90;;;;;;5450910;26;20002;-79
2024/04/23 09:16:34;;;;;;;5.05;3.13;;;6.50;99.90;;;;;;5455908;26;19998;-78
2024/04/23 09:18:59;;;;;;;5.50;2.78;;;6.50;99.90;;;;;;5458208;26;20017;-77
2024/04/23 09:21:26;;;;;;;6.95;4.22;;;6.40;99.90;;;;;;5453336;26;20437;-77
2024/04/23 09:23:51;;;;;;;6.65;3.20;;;6.40;99.90;;;;;;5453879;26;20002;-77
2024/04/23 09:26:23;;;;;;;7.05;2.92;;;6.40;99.90;;;;;;5457222;26;20053;-77
2024/04/23 09:28:49;;;;;;;5.72;3.70;;;6.40;99.90;;;;;;5452198;26;20101;-77
2024/04/23 09:31:20;;;;;;;5.28;3.00;;;6.30;99.90;;;;;;5454234;26;19994;-77
2024/04/23 09:33:55;;;;;;;8.50;5.57;;;6.30;99.90;;;;;;5456441;26;20016;-77
2024/04/23 09:36:25;;;;;;;5.30;2.85;;;6.20;99.90;;;;;;5454175;26;20002;-77
2024/04/23 09:38:55;;;;;;;3.90;2.55;;;6.20;99.90;;;;;;5456007;26;19998;-76
2024/04/23 09:41:21;;;;;;;4.03;2.38;;;6.10;99.90;;;;;;5453991;26;20007;-77
2024/04/23 09:43:56;;;;;;;4.97;2.55;;;6.10;99.90;;;;;;5457165;26;20004;-77
2024/04/23 09:46:28;;;;;;;;;;;6.30;99.90;;;;;;5455612;26;20010;-77
2024/04/23 09:48:53;;;;;;;6.50;2.80;;;6.30;99.90;;;;;;5454989;26;19939;-76
2024/04/23 09:51:20;;;;;;;6.63;3.78;;;6.10;99.90;;;;;;5454097;26;20014;-77
2024/04/23 09:53:47;;;;;;;4.13;2.70;;;6.30;99.90;;;;;;5457516;26;20325;-77
2024/04/23 09:56:18;;;;;;;4.20;2.35;;;6.30;99.90;;;;;;5454134;26;20014;-76
2024/04/23 09:58:45;;;;;;;3.63;2.50;;;6.10;99.90;;;;;;5452015;26;20048;-77
2024/04/23 10:01:13;;;;;;;5.22;3.10;;;6.10;99.90;;;;;;5455339;26;20002;-78
2024/04/23 10:03:42;;;;;;;4.50;2.40;;;6.20;99.90;;;;;;5451788;26;19998;-78
2024/04/23 10:06:11;;;;;;;6.68;3.00;;;6.00;99.90;;;;;;5454349;26;20021;-77
2024/04/23 10:09:08;;;;;;;6.05;2.30;;;6.10;99.90;;;;;;5459180;26;20006;-78
2024/04/23 10:11:57;;;;;;;3.97;2.03;;;5.90;99.90;;;;;;5455665;26;20020;-78
2024/04/23 10:14:54;;;;;;;4.22;2.72;;;6.00;99.90;;;;;;5454783;26;20797;-77
2024/04/23 10:17:32;;;;;;;3.40;2.05;;;6.00;99.90;;;;;;5454512;26;20002;-77
2024/04/23 10:20:00;;;;;;;4.05;2.15;;;5.90;99.90;;;;;;5452936;26;20017;-78
2024/04/23 10:22:30;;;;;;;3.53;2.28;;;5.80;99.90;;;;;;5454197;26;20713;-77
2024/04/23 10:24:57;;;;;;;3.10;1.95;;;5.80;99.90;;;;;;5447993;26;20012;-78
2024/04/23 10:27:24;;;;;;;4.13;1.98;;;5.70;99.90;;;;;;5456779;26;20006;-78
2024/04/23 10:29:52;;;;;;;3.95;2.42;;;5.80;99.90;;;;;;5452649;26;20002;-78
2024/04/23 10:32:20;;;;;;;4.75;2.80;;;5.70;99.90;;;;;;5452950;26;20370;-78
2024/04/23 10:34:47;;;;;;;4.28;2.10;;;5.70;99.90;;;;;;5454564;26;20025;-78
2024/04/23 10:37:15;;;;;;;4.47;2.20;;;5.50;99.90;;;;;;5454338;26;20017;-78
2024/04/23 10:39:41;;;;;;;3.72;1.90;;;5.50;99.90;;;;;;5453304;26;20131;-78
2024/04/23 10:42:10;;;;;;;2.65;1.90;;;5.40;99.90;;;;;;5456254;26;20432;-78
2024/04/23 10:44:37;;;;;;;4.38;2.10;;;5.40;99.90;;;;;;5457972;26;20013;-78
2024/04/23 10:47:05;;;;;;;5.10;2.28;;;5.40;99.90;;;;;;5457399;26;20006;-78
2024/04/23 10:49:36;;;;;;;3.90;2.40;;;5.20;99.90;;;;;;5455422;26;20748;-78
2024/04/23 10:52:02;;;;;;;5.97;2.60;;;5.10;99.90;;;;;;5455623;26;20002;-78
2024/04/23 10:54:28;;;;;;;4.15;2.60;;;5.10;99.90;;;;;;5455610;26;20087;-77
2024/04/23 10:57:09;;;;;;;4.47;2.38;;;5.20;99.90;;;;;;5454917;26;20517;-78
2024/04/23 10:59:38;;;;;;;3.75;2.03;;;5.10;99.90;;;;;;5453217;26;20003;-79
2024/04/23 11:02:07;;;;;;;4.40;2.60;;;5.10;99.90;;;;;;5458219;26;20005;-77
2024/04/23 11:04:40;;;;;;;5.38;3.20;;;5.10;99.90;;;;;;5453590;26;20009;-77
2024/04/23 11:07:09;;;;;;;6.35;2.80;;;5.20;99.90;;;;;;5452822;26;19998;-77
2024/04/23 11:09:43;;;;;;;5.05;2.83;;;5.10;99.90;;;;;;5452315;26;20078;-77
2024/04/23 11:12:25;;;;;;;6.13;2.83;;;5.00;99.90;;;;;;5453898;26;20014;-77
2024/04/23 11:14:54;;;;;;;3.58;2.42;;;5.10;99.90;;;;;;5450677;26;19997;-78
2024/04/23 11:17:20;;;;;;;3.90;2.38;;;5.20;99.90;;;;;;5455111;26;20051;-77
2024/04/23 11:19:51;;;;;;;3.53;2.17;;;5.40;99.90;;;;;;5453798;26;20001;-77
2024/04/23 11:22:34;;;;;;;4.28;2.47;;;5.50;99.90;;;;;;5454208;26;20067;-77
2024/04/23 11:25:15;;;;;;;5.45;2.08;;;5.20;99.90;;;;;;5449684;26;20020;-77
2024/04/23 11:27:42;;;;;;;3.08;1.90;;;5.20;99.90;;;;;;5453362;26;20437;-77
2024/04/23 11:30:13;;;;;;;3.58;1.92;;;5.20;99.90;;;;;;5456177;26;20006;-77
2024/04/23 11:32:39;;;;;;;4.57;2.20;;;5.20;99.90;;;;;;5453862;26;20018;-77
2024/04/23 11:35:09;;;;;;;4.57;2.15;;;5.30;99.90;;;;;;5453515;26;20011;-77
2024/04/23 11:37:35;;;;;;;5.57;3.08;;;5.30;99.90;;;;;;5454133;26;20006;-78
2024/04/23 11:40:01;;;;;;;4.57;2.65;;;5.20;99.90;;;;;;5453251;26;20065;-78
2024/04/23 11:42:31;;;;;;;4.90;2.67;;;5.10;99.90;;;;;;5453423;26;20006;-77
2024/04/23 11:45:02;;;;;;;3.55;2.10;;;5.10;99.90;;;;;;5452473;26;20021;-78
2024/04/23 11:47:28;;;;;;;5.10;2.38;;;5.30;99.90;;;;;;5452992;26;19998;-78
2024/04/23 11:49:55;;;;;;;5.05;2.53;;;5.50;99.90;;;;;;5453166;26;20002;-78
2024/04/23 11:52:22;;;;;;;5.85;3.15;;;5.50;99.90;;;;;;5455953;26;20009;-78
2024/04/23 11:54:49;;;;;;;4.90;2.83;;;5.60;99.90;;;;;;5451992;26;20082;-78
2024/04/23 11:57:17;;;;;;;4.07;2.60;;;5.80;99.90;;;;;;5451002;26;20016;-78
2024/04/23 11:59:43;;;;;;;4.90;2.63;;;5.90;99.90;;;;;;5451990;26;20006;-78
2024/04/23 12:02:12;;;;;;;3.95;2.22;;;5.90;99.90;;;;;;5450221;26;20010;-78
2024/04/23 12:04:39;;;;;;;5.85;1.98;;;6.00;99.90;;;;;;5447504;26;20013;-78
2024/04/23 12:07:05;;;;;;;3.60;1.75;;;6.10;99.90;;;;;;5450881;26;20006;-78
2024/04/23 12:09:34;;;;;;;4.25;2.40;;;6.20;99.90;;;;;;5449462;26;20391;-78
2024/04/23 12:12:00;;;;;;;5.72;1.85;;;6.30;99.90;;;;;;5447509;26;20099;-78
2024/04/23 12:14:28;;;;;;;2.92;1.58;;;6.50;99.90;;;;;;5447281;26;20018;-78
2024/04/23 12:16:58;;;;;;;2.72;1.50;;;6.70;99.90;;;;;;5448312;26;20005;-77
2024/04/23 12:19:24;;;;;;;7.45;2.17;;;6.80;99.90;;;;;;5447426;26;20101;-78
2024/04/23 12:21:50;;;;;;;2.63;1.40;;;6.80;99.90;;;;;;5452145;26;20049;-78
2024/04/23 12:24:16;;;;;;;1.98;1.13;;;6.70;99.90;;;;;;5448711;26;20507;-78
2024/04/23 12:26:45;;;;;;;3.13;1.30;;;6.90;99.90;;;;;;5448515;26;20468;-78
2024/04/23 12:29:11;;;;;;;2.47;1.35;;;7.10;99.90;;;;;;5453346;26;20005;-77
2024/04/23 12:31:37;;;;;;;3.65;1.38;;;7.20;99.90;;;;;;5450580;26;20422;-77
2024/04/23 12:34:03;;;;;;;6.35;1.13;;;7.40;99.90;;;;;;5454591;26;20007;-78
2024/04/23 12:36:29;;;;;;;1.92;0.90;;;7.40;99.90;;;;;;5451769;26;20663;-77
2024/04/23 12:38:55;;;;;;;2.58;1.15;;;7.40;99.90;;;;;;5452111;26;20006;-78
2024/04/23 12:41:22;;;;;;;3.33;1.10;;;7.40;99.90;;;;;;5454940;26;20002;-77
2024/04/23 12:43:49;;;;;;;2.40;1.50;;;7.40;99.90;;;;;;5456274;26;20002;-78
2024/04/23 12:46:16;;;;;;;3.72;1.70;;;7.50;99.90;;;;;;5449668;26;21208;-77
2024/04/23 12:48:43;;;;;;;3.55;1.55;;;7.70;99.90;;;;;;5451258;26;20010;-77
2024/04/23 12:51:09;;;;;;;3.08;1.77;;;7.80;99.90;;;;;;5455273;26;20490;-78
2024/04/23 12:53:35;;;;;;;6.10;2.50;;;7.70;99.90;;;;;;5453176;26;19998;-77
2024/04/23 12:56:00;;;;;;;5.70;2.55;;;7.80;99.90;;;;;;5451413;26;20013;-78
2024/04/23 12:58:32;;;;;;;4.07;2.25;;;7.80;99.90;;;;;;5452052;26;20021;-77
2024/04/23 13:00:58;;;;;;;3.63;1.73;;;7.70;99.90;;;;;;5453040;26;20855;-78
2024/04/23 13:03:24;;;;;;;3.35;1.83;;;7.80;99.90;;;;;;5452475;26;20006;-78
2024/04/23 13:05:51;;;;;;;3.13;1.55;;;7.70;99.90;;;;;;5454392;26;20574;-77